sensor_id;sensor_type;location;lat;lon;timestamp;P1;durP1;ratioP1;P2;durP2;ratioP2
26562;SDS011;14217;50.986;5.826;2023-12-14T00:00:57;1.55;;;0.70;;
26562;SDS011;14217;50.986;5.826;2023-12-14T00:05:59;1.60;;;0.93;;
26562;SDS011;14217;50.986;5.826;2023-12-14T00:11:05;2.85;;;1.30;;
26562;SDS011;14217;50.986;5.826;2023-12-14T00:16:07;1.95;;;1.10;;
26562;SDS011;14217;50.986;5.826;2023-12-14T00:21:09;1.10;;;0.90;;
26562;SDS011;14217;50.986;5.826;2023-12-14T00:26:11;1.83;;;0.77;;
26562;SDS011;14217;50.986;5.826;2023-12-14T00:31:14;0.80;;;0.77;;
26562;SDS011;14217;50.986;5.826;2023-12-14T00:36:19;3.22;;;1.38;;
26562;SDS011;14217;50.986;5.826;2023-12-14T00:41:21;1.88;;;0.90;;
26562;SDS011;14217;50.986;5.826;2023-12-14T00:46:22;0.63;;;0.57;;
26562;SDS011;14217;50.986;5.826;2023-12-14T00:51:24;3.13;;;0.90;;
26562;SDS011;14217;50.986;5.826;2023-12-14T00:56:26;1.00;;;0.63;;
26562;SDS011;14217;50.986;5.826;2023-12-14T01:01:28;2.47;;;0.98;;
26562;SDS011;14217;50.986;5.826;2023-12-14T01:06:30;2.40;;;1.33;;
26562;SDS011;14217;50.986;5.826;2023-12-14T01:11:32;2.88;;;1.67;;
26562;SDS011;14217;50.986;5.826;2023-12-14T01:16:34;3.03;;;1.30;;
26562;SDS011;14217;50.986;5.826;2023-12-14T01:21:36;0.95;;;0.90;;
26562;SDS011;14217;50.986;5.826;2023-12-14T01:26:38;2.80;;;0.93;;
26562;SDS011;14217;50.986;5.826;2023-12-14T01:31:40;1.83;;;1.20;;
26562;SDS011;14217;50.986;5.826;2023-12-14T01:36:42;1.58;;;1.00;;
26562;SDS011;14217;50.986;5.826;2023-12-14T01:41:44;4.05;;;1.25;;
26562;SDS011;14217;50.986;5.826;2023-12-14T01:46:46;1.25;;;1.08;;
26562;SDS011;14217;50.986;5.826;2023-12-14T01:51:48;2.03;;;1.23;;
26562;SDS011;14217;50.986;5.826;2023-12-14T01:56:50;1.17;;;1.00;;
26562;SDS011;14217;50.986;5.826;2023-12-14T02:01:52;1.42;;;1.05;;
26562;SDS011;14217;50.986;5.826;2023-12-14T02:06:58;1.20;;;0.95;;
26562;SDS011;14217;50.986;5.826;2023-12-14T02:12:00;1.45;;;1.10;;
26562;SDS011;14217;50.986;5.826;2023-12-14T02:17:02;1.65;;;1.13;;
26562;SDS011;14217;50.986;5.826;2023-12-14T02:22:04;1.30;;;1.20;;
26562;SDS011;14217;50.986;5.826;2023-12-14T02:27:06;0.82;;;0.80;;
26562;SDS011;14217;50.986;5.826;2023-12-14T02:32:08;1.17;;;0.80;;
26562;SDS011;14217;50.986;5.826;2023-12-14T02:37:10;0.95;;;0.85;;
26562;SDS011;14217;50.986;5.826;2023-12-14T02:42:12;0.90;;;0.90;;
26562;SDS011;14217;50.986;5.826;2023-12-14T02:47:15;0.95;;;0.70;;
26562;SDS011;14217;50.986;5.826;2023-12-14T02:52:17;0.90;;;0.80;;
26562;SDS011;14217;50.986;5.826;2023-12-14T02:57:19;1.73;;;0.80;;
26562;SDS011;14217;50.986;5.826;2023-12-14T03:02:21;1.70;;;0.90;;
26562;SDS011;14217;50.986;5.826;2023-12-14T03:07:23;0.63;;;0.63;;
26562;SDS011;14217;50.986;5.826;2023-12-14T03:12:25;0.80;;;0.60;;
26562;SDS011;14217;50.986;5.826;2023-12-14T03:17:27;0.50;;;0.50;;
26562;SDS011;14217;50.986;5.826;2023-12-14T03:22:29;0.73;;;0.73;;
26562;SDS011;14217;50.986;5.826;2023-12-14T03:27:31;0.60;;;0.50;;
26562;SDS011;14217;50.986;5.826;2023-12-14T03:32:33;0.63;;;0.63;;
26562;SDS011;14217;50.986;5.826;2023-12-14T03:37:36;1.55;;;0.90;;
26562;SDS011;14217;50.986;5.826;2023-12-14T03:42:38;0.65;;;0.65;;
26562;SDS011;14217;50.986;5.826;2023-12-14T03:47:40;1.20;;;0.70;;
26562;SDS011;14217;50.986;5.826;2023-12-14T03:52:42;0.82;;;0.63;;
26562;SDS011;14217;50.986;5.826;2023-12-14T03:57:44;0.90;;;0.77;;
26562;SDS011;14217;50.986;5.826;2023-12-14T04:02:46;0.60;;;0.60;;
26562;SDS011;14217;50.986;5.826;2023-12-14T04:07:48;0.50;;;0.50;;
26562;SDS011;14217;50.986;5.826;2023-12-14T04:12:50;0.50;;;0.50;;
26562;SDS011;14217;50.986;5.826;2023-12-14T04:17:52;1.48;;;0.80;;
26562;SDS011;14217;50.986;5.826;2023-12-14T04:22:54;0.57;;;0.57;;
26562;SDS011;14217;50.986;5.826;2023-12-14T04:27:56;0.52;;;0.52;;
26562;SDS011;14217;50.986;5.826;2023-12-14T04:32:58;0.65;;;0.60;;
26562;SDS011;14217;50.986;5.826;2023-12-14T04:38:00;0.63;;;0.63;;
26562;SDS011;14217;50.986;5.826;2023-12-14T04:43:02;1.50;;;0.88;;
26562;SDS011;14217;50.986;5.826;2023-12-14T04:48:04;0.68;;;0.50;;
26562;SDS011;14217;50.986;5.826;2023-12-14T04:53:07;1.08;;;0.70;;
26562;SDS011;14217;50.986;5.826;2023-12-14T04:58:09;0.60;;;0.60;;
26562;SDS011;14217;50.986;5.826;2023-12-14T05:03:13;0.82;;;0.70;;
26562;SDS011;14217;50.986;5.826;2023-12-14T05:08:14;1.35;;;0.60;;
26562;SDS011;14217;50.986;5.826;2023-12-14T05:13:17;0.63;;;0.63;;
26562;SDS011;14217;50.986;5.826;2023-12-14T05:18:19;0.60;;;0.60;;
26562;SDS011;14217;50.986;5.826;2023-12-14T05:23:21;1.92;;;0.70;;
26562;SDS011;14217;50.986;5.826;2023-12-14T05:28:23;0.82;;;0.80;;
26562;SDS011;14217;50.986;5.826;2023-12-14T05:33:25;3.83;;;0.95;;
26562;SDS011;14217;50.986;5.826;2023-12-14T05:38:27;0.60;;;0.60;;
26562;SDS011;14217;50.986;5.826;2023-12-14T05:43:29;0.63;;;0.40;;
26562;SDS011;14217;50.986;5.826;2023-12-14T05:48:31;0.52;;;0.45;;
26562;SDS011;14217;50.986;5.826;2023-12-14T05:53:33;0.77;;;0.75;;
26562;SDS011;14217;50.986;5.826;2023-12-14T05:58:40;0.70;;;0.70;;
26562;SDS011;14217;50.986;5.826;2023-12-14T06:03:43;1.67;;;0.75;;
26562;SDS011;14217;50.986;5.826;2023-12-14T06:08:45;0.80;;;0.80;;
26562;SDS011;14217;50.986;5.826;2023-12-14T06:13:47;0.82;;;0.75;;
26562;SDS011;14217;50.986;5.826;2023-12-14T06:18:49;0.70;;;0.70;;
26562;SDS011;14217;50.986;5.826;2023-12-14T06:23:51;0.60;;;0.60;;
26562;SDS011;14217;50.986;5.826;2023-12-14T06:28:53;0.85;;;0.75;;
26562;SDS011;14217;50.986;5.826;2023-12-14T06:33:55;1.42;;;0.73;;
26562;SDS011;14217;50.986;5.826;2023-12-14T06:39:01;0.80;;;0.80;;
26562;SDS011;14217;50.986;5.826;2023-12-14T06:44:05;1.55;;;1.00;;
26562;SDS011;14217;50.986;5.826;2023-12-14T06:49:07;0.80;;;0.80;;
26562;SDS011;14217;50.986;5.826;2023-12-14T06:54:09;1.30;;;0.90;;
26562;SDS011;14217;50.986;5.826;2023-12-14T06:59:11;0.80;;;0.80;;
26562;SDS011;14217;50.986;5.826;2023-12-14T07:04:13;0.52;;;0.52;;
26562;SDS011;14217;50.986;5.826;2023-12-14T07:09:17;1.63;;;0.70;;
26562;SDS011;14217;50.986;5.826;2023-12-14T07:14:19;1.17;;;0.80;;
26562;SDS011;14217;50.986;5.826;2023-12-14T07:19:25;1.20;;;0.60;;
26562;SDS011;14217;50.986;5.826;2023-12-14T07:24:27;0.70;;;0.70;;
26562;SDS011;14217;50.986;5.826;2023-12-14T07:29:35;1.27;;;1.15;;
26562;SDS011;14217;50.986;5.826;2023-12-14T07:34:37;2.58;;;1.33;;
26562;SDS011;14217;50.986;5.826;2023-12-14T07:39:39;1.60;;;1.17;;
26562;SDS011;14217;50.986;5.826;2023-12-14T07:44:41;3.03;;;1.35;;
26562;SDS011;14217;50.986;5.826;2023-12-14T07:49:42;4.82;;;2.50;;
26562;SDS011;14217;50.986;5.826;2023-12-14T07:54:44;4.40;;;2.38;;
26562;SDS011;14217;50.986;5.826;2023-12-14T07:59:46;6.32;;;2.20;;
26562;SDS011;14217;50.986;5.826;2023-12-14T08:04:48;2.75;;;2.50;;
26562;SDS011;14217;50.986;5.826;2023-12-14T08:09:51;2.22;;;1.95;;
26562;SDS011;14217;50.986;5.826;2023-12-14T08:14:53;2.53;;;2.33;;
26562;SDS011;14217;50.986;5.826;2023-12-14T08:19:55;1.73;;;1.63;;
26562;SDS011;14217;50.986;5.826;2023-12-14T08:24:57;1.80;;;1.60;;
26562;SDS011;14217;50.986;5.826;2023-12-14T08:29:59;5.25;;;1.58;;
26562;SDS011;14217;50.986;5.826;2023-12-14T08:35:01;1.73;;;1.50;;
26562;SDS011;14217;50.986;5.826;2023-12-14T08:40:04;1.85;;;1.35;;
26562;SDS011;14217;50.986;5.826;2023-12-14T08:45:07;1.50;;;1.00;;
26562;SDS011;14217;50.986;5.826;2023-12-14T08:50:12;1.67;;;1.27;;
26562;SDS011;14217;50.986;5.826;2023-12-14T08:55:14;1.33;;;1.23;;
26562;SDS011;14217;50.986;5.826;2023-12-14T09:00:16;1.45;;;1.30;;
26562;SDS011;14217;50.986;5.826;2023-12-14T09:05:19;2.17;;;1.95;;
26562;SDS011;14217;50.986;5.826;2023-12-14T09:10:22;2.30;;;1.80;;
26562;SDS011;14217;50.986;5.826;2023-12-14T09:15:24;1.40;;;1.15;;
26562;SDS011;14217;50.986;5.826;2023-12-14T09:20:26;1.77;;;1.30;;
26562;SDS011;14217;50.986;5.826;2023-12-14T09:25:28;1.73;;;1.58;;
26562;SDS011;14217;50.986;5.826;2023-12-14T09:30:30;1.85;;;1.70;;
26562;SDS011;14217;50.986;5.826;2023-12-14T09:35:33;1.65;;;1.55;;
26562;SDS011;14217;50.986;5.826;2023-12-14T09:40:34;2.22;;;1.38;;
26562;SDS011;14217;50.986;5.826;2023-12-14T09:45:37;1.58;;;1.27;;
26562;SDS011;14217;50.986;5.826;2023-12-14T09:50:43;2.35;;;1.10;;
26562;SDS011;14217;50.986;5.826;2023-12-14T09:55:45;1.50;;;1.40;;
26562;SDS011;14217;50.986;5.826;2023-12-14T10:00:51;1.42;;;1.30;;
26562;SDS011;14217;50.986;5.826;2023-12-14T10:05:56;1.60;;;1.25;;
26562;SDS011;14217;50.986;5.826;2023-12-14T10:11:00;2.10;;;1.15;;
26562;SDS011;14217;50.986;5.826;2023-12-14T10:16:03;1.60;;;1.48;;
26562;SDS011;14217;50.986;5.826;2023-12-14T10:21:07;1.95;;;1.42;;
26562;SDS011;14217;50.986;5.826;2023-12-14T10:26:09;1.80;;;1.25;;
26562;SDS011;14217;50.986;5.826;2023-12-14T10:31:12;2.97;;;1.38;;
26562;SDS011;14217;50.986;5.826;2023-12-14T10:36:15;1.60;;;1.35;;
26562;SDS011;14217;50.986;5.826;2023-12-14T10:41:21;1.10;;;0.95;;
26562;SDS011;14217;50.986;5.826;2023-12-14T10:46:24;1.27;;;1.05;;
26562;SDS011;14217;50.986;5.826;2023-12-14T10:51:26;1.27;;;1.15;;
26562;SDS011;14217;50.986;5.826;2023-12-14T10:56:28;1.65;;;1.50;;
26562;SDS011;14217;50.986;5.826;2023-12-14T11:01:32;1.60;;;1.50;;
26562;SDS011;14217;50.986;5.826;2023-12-14T11:06:37;1.45;;;1.23;;
26562;SDS011;14217;50.986;5.826;2023-12-14T11:11:47;1.98;;;1.40;;
26562;SDS011;14217;50.986;5.826;2023-12-14T11:17:05;1.45;;;1.00;;
26562;SDS011;14217;50.986;5.826;2023-12-14T11:27:14;3.83;;;1.02;;
26562;SDS011;14217;50.986;5.826;2023-12-14T11:32:16;1.40;;;1.30;;
26562;SDS011;14217;50.986;5.826;2023-12-14T11:37:19;1.88;;;1.20;;
26562;SDS011;14217;50.986;5.826;2023-12-14T11:42:23;1.40;;;1.23;;
26562;SDS011;14217;50.986;5.826;2023-12-14T11:47:26;2.05;;;1.15;;
26562;SDS011;14217;50.986;5.826;2023-12-14T11:52:29;2.08;;;1.65;;
26562;SDS011;14217;50.986;5.826;2023-12-14T11:57:31;1.85;;;1.52;;
26562;SDS011;14217;50.986;5.826;2023-12-14T12:02:33;2.53;;;2.10;;
26562;SDS011;14217;50.986;5.826;2023-12-14T12:07:36;1.55;;;1.40;;
26562;SDS011;14217;50.986;5.826;2023-12-14T12:12:38;2.00;;;1.27;;
26562;SDS011;14217;50.986;5.826;2023-12-14T12:17:43;1.42;;;1.33;;
26562;SDS011;14217;50.986;5.826;2023-12-14T12:22:46;3.08;;;1.05;;
26562;SDS011;14217;50.986;5.826;2023-12-14T12:27:48;2.60;;;1.05;;
26562;SDS011;14217;50.986;5.826;2023-12-14T12:32:50;6.93;;;1.58;;
26562;SDS011;14217;50.986;5.826;2023-12-14T12:37:53;1.67;;;1.15;;
26562;SDS011;14217;50.986;5.826;2023-12-14T12:42:55;1.33;;;1.00;;
26562;SDS011;14217;50.986;5.826;2023-12-14T12:47:57;1.38;;;0.82;;
26562;SDS011;14217;50.986;5.826;2023-12-14T12:52:59;1.63;;;0.88;;
26562;SDS011;14217;50.986;5.826;2023-12-14T12:58:01;1.20;;;0.73;;
26562;SDS011;14217;50.986;5.826;2023-12-14T13:03:06;1.50;;;0.90;;
26562;SDS011;14217;50.986;5.826;2023-12-14T13:08:08;2.50;;;1.45;;
26562;SDS011;14217;50.986;5.826;2023-12-14T13:13:10;1.30;;;0.80;;
26562;SDS011;14217;50.986;5.826;2023-12-14T13:18:14;0.85;;;0.73;;
26562;SDS011;14217;50.986;5.826;2023-12-14T13:23:19;0.60;;;0.45;;
26562;SDS011;14217;50.986;5.826;2023-12-14T13:28:21;0.82;;;0.50;;
26562;SDS011;14217;50.986;5.826;2023-12-14T13:33:23;0.63;;;0.50;;
26562;SDS011;14217;50.986;5.826;2023-12-14T13:38:29;0.45;;;0.45;;
26562;SDS011;14217;50.986;5.826;2023-12-14T13:43:33;0.88;;;0.80;;
26562;SDS011;14217;50.986;5.826;2023-12-14T13:48:35;0.50;;;0.50;;
26562;SDS011;14217;50.986;5.826;2023-12-14T13:53:37;0.50;;;0.50;;
26562;SDS011;14217;50.986;5.826;2023-12-14T13:58:39;0.50;;;0.50;;
26562;SDS011;14217;50.986;5.826;2023-12-14T14:03:41;0.65;;;0.30;;
26562;SDS011;14217;50.986;5.826;2023-12-14T14:08:43;0.45;;;0.43;;
26562;SDS011;14217;50.986;5.826;2023-12-14T14:13:45;1.17;;;0.60;;
26562;SDS011;14217;50.986;5.826;2023-12-14T14:18:48;3.78;;;0.40;;
26562;SDS011;14217;50.986;5.826;2023-12-14T14:23:50;1.08;;;0.63;;
26562;SDS011;14217;50.986;5.826;2023-12-14T14:28:52;1.42;;;0.50;;
26562;SDS011;14217;50.986;5.826;2023-12-14T14:33:56;0.50;;;0.50;;
26562;SDS011;14217;50.986;5.826;2023-12-14T14:38:58;0.40;;;0.40;;
26562;SDS011;14217;50.986;5.826;2023-12-14T14:44:00;0.50;;;0.50;;
26562;SDS011;14217;50.986;5.826;2023-12-14T14:49:02;0.73;;;0.70;;
26562;SDS011;14217;50.986;5.826;2023-12-14T14:54:04;0.98;;;0.40;;
26562;SDS011;14217;50.986;5.826;2023-12-14T14:59:06;0.60;;;0.50;;
26562;SDS011;14217;50.986;5.826;2023-12-14T15:04:10;0.52;;;0.52;;
26562;SDS011;14217;50.986;5.826;2023-12-14T15:09:12;0.68;;;0.38;;
26562;SDS011;14217;50.986;5.826;2023-12-14T15:14:14;0.45;;;0.40;;
26562;SDS011;14217;50.986;5.826;2023-12-14T15:19:16;0.35;;;0.30;;
26562;SDS011;14217;50.986;5.826;2023-12-14T15:24:18;0.68;;;0.47;;
26562;SDS011;14217;50.986;5.826;2023-12-14T15:29:20;0.40;;;0.40;;
26562;SDS011;14217;50.986;5.826;2023-12-14T15:34:23;0.68;;;0.68;;
26562;SDS011;14217;50.986;5.826;2023-12-14T15:39:25;0.93;;;0.60;;
26562;SDS011;14217;50.986;5.826;2023-12-14T15:44:27;0.40;;;0.40;;
26562;SDS011;14217;50.986;5.826;2023-12-14T15:49:29;1.20;;;0.93;;
26562;SDS011;14217;50.986;5.826;2023-12-14T15:54:31;0.65;;;0.47;;
26562;SDS011;14217;50.986;5.826;2023-12-14T15:59:32;1.05;;;0.60;;
26562;SDS011;14217;50.986;5.826;2023-12-14T16:04:34;0.52;;;0.43;;
26562;SDS011;14217;50.986;5.826;2023-12-14T16:09:36;1.58;;;0.50;;
26562;SDS011;14217;50.986;5.826;2023-12-14T16:14:38;1.00;;;0.90;;
26562;SDS011;14217;50.986;5.826;2023-12-14T16:19:40;2.70;;;0.80;;
26562;SDS011;14217;50.986;5.826;2023-12-14T16:24:42;1.40;;;0.63;;
26562;SDS011;14217;50.986;5.826;2023-12-14T16:29:48;7.32;;;0.98;;
26562;SDS011;14217;50.986;5.826;2023-12-14T16:34:50;1.70;;;0.68;;
26562;SDS011;14217;50.986;5.826;2023-12-14T16:39:52;1.00;;;0.70;;
26562;SDS011;14217;50.986;5.826;2023-12-14T16:44:54;1.10;;;0.70;;
26562;SDS011;14217;50.986;5.826;2023-12-14T16:49:56;1.13;;;0.70;;
26562;SDS011;14217;50.986;5.826;2023-12-14T16:54:58;1.30;;;0.70;;
26562;SDS011;14217;50.986;5.826;2023-12-14T17:00:00;3.83;;;1.30;;
26562;SDS011;14217;50.986;5.826;2023-12-14T17:05:02;0.60;;;0.60;;
26562;SDS011;14217;50.986;5.826;2023-12-14T17:10:05;1.02;;;0.63;;
26562;SDS011;14217;50.986;5.826;2023-12-14T17:15:07;3.58;;;0.88;;
26562;SDS011;14217;50.986;5.826;2023-12-14T17:20:13;0.50;;;0.50;;
26562;SDS011;14217;50.986;5.826;2023-12-14T17:25:15;0.40;;;0.40;;
26562;SDS011;14217;50.986;5.826;2023-12-14T17:30:17;0.80;;;0.57;;
26562;SDS011;14217;50.986;5.826;2023-12-14T17:35:19;1.25;;;0.57;;
26562;SDS011;14217;50.986;5.826;2023-12-14T17:40:22;1.15;;;0.65;;
26562;SDS011;14217;50.986;5.826;2023-12-14T17:45:26;1.83;;;0.68;;
26562;SDS011;14217;50.986;5.826;2023-12-14T17:50:28;1.55;;;0.50;;
26562;SDS011;14217;50.986;5.826;2023-12-14T17:55:30;1.38;;;0.98;;
26562;SDS011;14217;50.986;5.826;2023-12-14T18:00:32;0.88;;;0.75;;
26562;SDS011;14217;50.986;5.826;2023-12-14T18:05:34;0.95;;;0.80;;
26562;SDS011;14217;50.986;5.826;2023-12-14T18:10:39;0.77;;;0.70;;
26562;SDS011;14217;50.986;5.826;2023-12-14T18:15:41;0.77;;;0.77;;
26562;SDS011;14217;50.986;5.826;2023-12-14T18:20:43;1.20;;;1.05;;
26562;SDS011;14217;50.986;5.826;2023-12-14T18:25:45;2.45;;;0.82;;
26562;SDS011;14217;50.986;5.826;2023-12-14T18:30:50;0.80;;;0.80;;
26562;SDS011;14217;50.986;5.826;2023-12-14T18:35:52;1.10;;;0.93;;
26562;SDS011;14217;50.986;5.826;2023-12-14T18:40:54;1.30;;;1.20;;
26562;SDS011;14217;50.986;5.826;2023-12-14T18:45:56;3.53;;;1.23;;
26562;SDS011;14217;50.986;5.826;2023-12-14T18:50:58;2.90;;;1.23;;
26562;SDS011;14217;50.986;5.826;2023-12-14T18:55:59;3.67;;;1.70;;
26562;SDS011;14217;50.986;5.826;2023-12-14T19:01:02;1.52;;;1.10;;
26562;SDS011;14217;50.986;5.826;2023-12-14T19:06:07;13.20;;;1.27;;
26562;SDS011;14217;50.986;5.826;2023-12-14T19:11:17;2.53;;;1.10;;
26562;SDS011;14217;50.986;5.826;2023-12-14T19:16:24;1.10;;;1.00;;
26562;SDS011;14217;50.986;5.826;2023-12-14T19:21:27;2.85;;;1.63;;
26562;SDS011;14217;50.986;5.826;2023-12-14T19:26:29;2.45;;;1.25;;
26562;SDS011;14217;50.986;5.826;2023-12-14T19:31:31;1.85;;;1.40;;
26562;SDS011;14217;50.986;5.826;2023-12-14T19:36:33;4.38;;;1.40;;
26562;SDS011;14217;50.986;5.826;2023-12-14T19:41:37;2.13;;;1.67;;
26562;SDS011;14217;50.986;5.826;2023-12-14T19:46:39;2.05;;;1.80;;
26562;SDS011;14217;50.986;5.826;2023-12-14T19:51:41;2.85;;;1.58;;
26562;SDS011;14217;50.986;5.826;2023-12-14T19:56:43;1.65;;;1.30;;
26562;SDS011;14217;50.986;5.826;2023-12-14T20:01:46;5.38;;;1.80;;
26562;SDS011;14217;50.986;5.826;2023-12-14T20:06:48;3.83;;;1.45;;
26562;SDS011;14217;50.986;5.826;2023-12-14T20:11:53;2.45;;;1.38;;
26562;SDS011;14217;50.986;5.826;2023-12-14T20:16:55;1.50;;;1.40;;
26562;SDS011;14217;50.986;5.826;2023-12-14T20:21:57;1.52;;;1.30;;
26562;SDS011;14217;50.986;5.826;2023-12-14T20:26:59;5.85;;;1.60;;
26562;SDS011;14217;50.986;5.826;2023-12-14T20:32:01;2.95;;;1.35;;
26562;SDS011;14217;50.986;5.826;2023-12-14T20:37:03;1.48;;;1.08;;
26562;SDS011;14217;50.986;5.826;2023-12-14T20:42:05;4.03;;;1.50;;
26562;SDS011;14217;50.986;5.826;2023-12-14T20:47:07;1.80;;;0.80;;
26562;SDS011;14217;50.986;5.826;2023-12-14T20:52:10;1.00;;;0.90;;
26562;SDS011;14217;50.986;5.826;2023-12-14T20:57:12;4.65;;;0.82;;
26562;SDS011;14217;50.986;5.826;2023-12-14T21:02:15;0.77;;;0.70;;
26562;SDS011;14217;50.986;5.826;2023-12-14T21:07:17;1.65;;;1.00;;
26562;SDS011;14217;50.986;5.826;2023-12-14T21:12:22;2.72;;;0.70;;
26562;SDS011;14217;50.986;5.826;2023-12-14T21:17:25;2.28;;;0.70;;
26562;SDS011;14217;50.986;5.826;2023-12-14T21:22:27;1.80;;;0.63;;
26562;SDS011;14217;50.986;5.826;2023-12-14T21:27:30;0.68;;;0.68;;
26562;SDS011;14217;50.986;5.826;2023-12-14T21:32:48;1.15;;;0.90;;
26562;SDS011;14217;50.986;5.826;2023-12-14T21:37:50;0.70;;;0.50;;
26562;SDS011;14217;50.986;5.826;2023-12-14T21:42:52;1.10;;;0.43;;
26562;SDS011;14217;50.986;5.826;2023-12-14T21:47:55;0.55;;;0.50;;
26562;SDS011;14217;50.986;5.826;2023-12-14T21:52:57;0.45;;;0.45;;
26562;SDS011;14217;50.986;5.826;2023-12-14T21:57:59;1.98;;;0.60;;
26562;SDS011;14217;50.986;5.826;2023-12-14T22:03:01;2.05;;;0.75;;
26562;SDS011;14217;50.986;5.826;2023-12-14T22:08:03;0.73;;;0.73;;
26562;SDS011;14217;50.986;5.826;2023-12-14T22:13:05;1.20;;;0.70;;
26562;SDS011;14217;50.986;5.826;2023-12-14T22:18:07;3.72;;;1.10;;
26562;SDS011;14217;50.986;5.826;2023-12-14T22:23:10;6.00;;;0.90;;
26562;SDS011;14217;50.986;5.826;2023-12-14T22:28:12;1.33;;;0.82;;
26562;SDS011;14217;50.986;5.826;2023-12-14T22:33:15;1.42;;;1.10;;
26562;SDS011;14217;50.986;5.826;2023-12-14T22:38:18;1.65;;;0.90;;
26562;SDS011;14217;50.986;5.826;2023-12-14T22:43:21;3.33;;;1.67;;
26562;SDS011;14217;50.986;5.826;2023-12-14T22:48:23;4.07;;;1.20;;
26562;SDS011;14217;50.986;5.826;2023-12-14T22:53:25;1.40;;;0.80;;
26562;SDS011;14217;50.986;5.826;2023-12-14T22:58:29;1.38;;;0.80;;
26562;SDS011;14217;50.986;5.826;2023-12-14T23:03:31;1.50;;;0.75;;
26562;SDS011;14217;50.986;5.826;2023-12-14T23:08:34;2.17;;;1.00;;
26562;SDS011;14217;50.986;5.826;2023-12-14T23:13:36;1.90;;;0.93;;
26562;SDS011;14217;50.986;5.826;2023-12-14T23:18:38;0.63;;;0.60;;
26562;SDS011;14217;50.986;5.826;2023-12-14T23:23:40;3.88;;;1.10;;
26562;SDS011;14217;50.986;5.826;2023-12-14T23:28:42;0.90;;;0.60;;
26562;SDS011;14217;50.986;5.826;2023-12-14T23:33:44;1.58;;;0.75;;
26562;SDS011;14217;50.986;5.826;2023-12-14T23:38:46;2.80;;;0.90;;
26562;SDS011;14217;50.986;5.826;2023-12-14T23:43:48;2.58;;;1.35;;
26562;SDS011;14217;50.986;5.826;2023-12-14T23:48:50;2.97;;;0.70;;
26562;SDS011;14217;50.986;5.826;2023-12-14T23:53:54;1.63;;;0.82;;
26562;SDS011;14217;50.986;5.826;2023-12-14T23:58:56;2.08;;;0.77;;
